sensor_id;sensor_type;location;lat;lon;timestamp;pressure;altitude;pressure_sealevel;temperature;humidity
73338;BME280;61575;49.908;35.556;2022-10-16T00:02:21;100610.81;;;2.01;75.52
73338;BME280;61575;49.908;35.556;2022-10-16T00:05:23;100610.81;;;2.01;75.64
73338;BME280;61575;49.908;35.556;2022-10-16T00:08:25;100606.38;;;2.02;75.56
73338;BME280;61575;49.908;35.556;2022-10-16T00:11:30;100606.47;;;2.00;75.33
73338;BME280;61575;49.908;35.556;2022-10-16T00:14:32;100610.03;;;1.99;75.32
73338;BME280;61575;49.908;35.556;2022-10-16T00:17:33;100611.06;;;1.97;75.10
73338;BME280;61575;49.908;35.556;2022-10-16T00:20:35;100611.22;;;1.93;75.42
73338;BME280;61575;49.908;35.556;2022-10-16T00:23:38;100604.22;;;1.92;75.74
73338;BME280;61575;49.908;35.556;2022-10-16T00:26:40;100606.09;;;1.90;75.35
73338;BME280;61575;49.908;35.556;2022-10-16T00:29:42;100596.47;;;1.89;75.15
73338;BME280;61575;49.908;35.556;2022-10-16T00:32:44;100600.13;;;1.87;75.56
73338;BME280;61575;49.908;35.556;2022-10-16T00:35:46;100599.19;;;1.88;75.52
73338;BME280;61575;49.908;35.556;2022-10-16T00:38:53;100596.63;;;1.86;75.64
73338;BME280;61575;49.908;35.556;2022-10-16T00:41:56;100600.19;;;1.85;75.69
73338;BME280;61575;49.908;35.556;2022-10-16T00:44:58;100605.56;;;1.84;75.80
73338;BME280;61575;49.908;35.556;2022-10-16T00:48:00;100608.22;;;1.84;75.66
73338;BME280;61575;49.908;35.556;2022-10-16T00:51:02;100605.56;;;1.84;75.45
73338;BME280;61575;49.908;35.556;2022-10-16T00:54:19;100615.38;;;1.82;76.16
73338;BME280;61575;49.908;35.556;2022-10-16T00:57:22;100611.78;;;1.83;75.81
73338;BME280;61575;49.908;35.556;2022-10-16T01:00:26;100610.94;;;1.82;75.76
73338;BME280;61575;49.908;35.556;2022-10-16T01:03:33;100619.72;;;1.83;75.63
73338;BME280;61575;49.908;35.556;2022-10-16T01:13:07;100617.31;;;1.78;75.93
73338;BME280;61575;49.908;35.556;2022-10-16T01:22:43;100622.84;;;1.74;75.69
73338;BME280;61575;49.908;35.556;2022-10-16T01:26:09;100625.50;;;1.74;75.71
73338;BME280;61575;49.908;35.556;2022-10-16T01:29:14;100629.22;;;1.70;76.38
73338;BME280;61575;49.908;35.556;2022-10-16T01:32:41;100628.28;;;1.71;75.81
73338;BME280;61575;49.908;35.556;2022-10-16T01:35:54;100625.66;;;1.71;75.94
73338;BME280;61575;49.908;35.556;2022-10-16T01:39:00;100631.88;;;1.70;75.63
73338;BME280;61575;49.908;35.556;2022-10-16T01:42:20;100628.38;;;1.69;75.22
73338;BME280;61575;49.908;35.556;2022-10-16T01:45:23;100636.38;;;1.68;75.23
73338;BME280;61575;49.908;35.556;2022-10-16T01:48:25;100630.31;;;1.66;75.52
73338;BME280;61575;49.908;35.556;2022-10-16T01:51:27;100634.66;;;1.67;75.35
73338;BME280;61575;49.908;35.556;2022-10-16T01:54:32;100639.19;;;1.65;75.46
73338;BME280;61575;49.908;35.556;2022-10-16T01:57:37;100632.19;;;1.63;75.60
73338;BME280;61575;49.908;35.556;2022-10-16T02:00:43;100635.75;;;1.62;75.26
73338;BME280;61575;49.908;35.556;2022-10-16T02:03:49;100635.84;;;1.61;75.36
73338;BME280;61575;49.908;35.556;2022-10-16T02:06:53;100637.72;;;1.59;75.20
73338;BME280;61575;49.908;35.556;2022-10-16T02:09:55;100639.56;;;1.57;75.27
73338;BME280;61575;49.908;35.556;2022-10-16T02:16:09;100634.53;;;1.52;75.75
73338;BME280;61575;49.908;35.556;2022-10-16T02:19:13;100636.38;;;1.50;75.78
73338;BME280;61575;49.908;35.556;2022-10-16T02:22:20;100636.47;;;1.49;75.90
73338;BME280;61575;49.908;35.556;2022-10-16T02:25:33;100647.91;;;1.49;75.97
73338;BME280;61575;49.908;35.556;2022-10-16T02:28:48;100640.13;;;1.46;75.88
73338;BME280;61575;49.908;35.556;2022-10-16T02:32:00;100645.47;;;1.45;75.95
73338;BME280;61575;49.908;35.556;2022-10-16T02:35:04;100643.84;;;1.42;76.03
73338;BME280;61575;49.908;35.556;2022-10-16T02:38:08;100643.94;;;1.41;75.83
73338;BME280;61575;49.908;35.556;2022-10-16T02:41:15;100640.44;;;1.40;75.52
73338;BME280;61575;49.908;35.556;2022-10-16T02:44:17;100644.00;;;1.39;75.63
73338;BME280;61575;49.908;35.556;2022-10-16T02:47:19;100646.03;;;1.34;75.71
73338;BME280;61575;49.908;35.556;2022-10-16T02:50:21;100646.09;;;1.33;76.13
73338;BME280;61575;49.908;35.556;2022-10-16T02:53:23;100639.97;;;1.32;76.18
73338;BME280;61575;49.908;35.556;2022-10-16T02:56:25;100648.03;;;1.29;75.58
73338;BME280;61575;49.908;35.556;2022-10-16T02:59:27;100651.69;;;1.26;75.56
73338;BME280;61575;49.908;35.556;2022-10-16T03:02:29;100660.41;;;1.28;75.07
73338;BME280;61575;49.908;35.556;2022-10-16T03:05:31;100665.75;;;1.27;75.00
73338;BME280;61575;49.908;35.556;2022-10-16T03:08:33;100666.75;;;1.24;75.42
73338;BME280;61575;49.908;35.556;2022-10-16T03:11:34;100662.47;;;1.22;75.95
73338;BME280;61575;49.908;35.556;2022-10-16T03:14:36;100661.78;;;1.18;75.93
73338;BME280;61575;49.908;35.556;2022-10-16T03:17:38;100668.16;;;1.14;76.26
73338;BME280;61575;49.908;35.556;2022-10-16T03:20:40;100669.84;;;1.15;76.24
73338;BME280;61575;49.908;35.556;2022-10-16T03:23:42;100672.63;;;1.12;76.15
73338;BME280;61575;49.908;35.556;2022-10-16T03:26:43;100673.50;;;1.13;76.09
73338;BME280;61575;49.908;35.556;2022-10-16T03:29:45;100674.50;;;1.10;75.89
73338;BME280;61575;49.908;35.556;2022-10-16T03:32:47;100673.78;;;1.07;75.83
73338;BME280;61575;49.908;35.556;2022-10-16T03:35:53;100677.38;;;1.06;75.96
73338;BME280;61575;49.908;35.556;2022-10-16T03:38:56;100686.28;;;1.03;75.94
73338;BME280;61575;49.908;35.556;2022-10-16T03:41:57;100686.28;;;1.03;76.21
73338;BME280;61575;49.908;35.556;2022-10-16T03:44:59;100689.16;;;0.98;76.03
73338;BME280;61575;49.908;35.556;2022-10-16T03:48:01;100692.72;;;0.97;76.08
73338;BME280;61575;49.908;35.556;2022-10-16T03:51:04;100691.09;;;0.95;76.27
73338;BME280;61575;49.908;35.556;2022-10-16T03:54:06;100696.38;;;0.95;76.21
73338;BME280;61575;49.908;35.556;2022-10-16T03:57:08;100693.56;;;0.98;76.29
73338;BME280;61575;49.908;35.556;2022-10-16T04:00:10;100697.06;;;0.98;75.88
73338;BME280;61575;49.908;35.556;2022-10-16T04:03:12;100708.63;;;0.96;75.16
73338;BME280;61575;49.908;35.556;2022-10-16T04:06:14;100712.06;;;0.98;75.00
73338;BME280;61575;49.908;35.556;2022-10-16T04:09:16;100719.06;;;0.99;74.93
73338;BME280;61575;49.908;35.556;2022-10-16T04:12:18;100713.63;;;1.02;74.92
73338;BME280;61575;49.908;35.556;2022-10-16T04:15:20;100718.97;;;1.01;75.28
73338;BME280;61575;49.908;35.556;2022-10-16T04:18:22;100727.69;;;1.03;74.99
73338;BME280;61575;49.908;35.556;2022-10-16T04:21:24;100725.91;;;1.03;75.14
73338;BME280;61575;49.908;35.556;2022-10-16T04:24:26;100722.31;;;1.04;75.34
73338;BME280;61575;49.908;35.556;2022-10-16T04:27:28;100731.03;;;1.06;75.42
73338;BME280;61575;49.908;35.556;2022-10-16T04:30:30;100733.53;;;1.09;75.75
73338;BME280;61575;49.908;35.556;2022-10-16T04:33:33;100727.16;;;1.13;76.08
73338;BME280;61575;49.908;35.556;2022-10-16T04:36:35;100743.78;;;1.15;76.01
73338;BME280;61575;49.908;35.556;2022-10-16T04:39:37;100746.16;;;1.21;76.16
73338;BME280;61575;49.908;35.556;2022-10-16T04:42:39;100739.72;;;1.27;76.50
73338;BME280;61575;49.908;35.556;2022-10-16T04:45:41;100740.03;;;1.38;76.92
73338;BME280;61575;49.908;35.556;2022-10-16T04:48:42;100743.09;;;1.48;76.54
73338;BME280;61575;49.908;35.556;2022-10-16T04:51:44;100744.34;;;1.58;76.96
73338;BME280;61575;49.908;35.556;2022-10-16T04:54:46;100744.59;;;1.71;77.18
73338;BME280;61575;49.908;35.556;2022-10-16T04:57:48;100750.97;;;1.84;76.91
73338;BME280;61575;49.908;35.556;2022-10-16T05:00:49;100752.06;;;1.97;76.84
73338;BME280;61575;49.908;35.556;2022-10-16T05:03:51;100753.94;;;2.12;76.69
73338;BME280;61575;49.908;35.556;2022-10-16T05:06:53;100760.22;;;2.27;76.79
73338;BME280;61575;49.908;35.556;2022-10-16T05:09:55;100762.91;;;2.43;76.52
73338;BME280;61575;49.908;35.556;2022-10-16T05:12:57;100770.22;;;2.55;76.94
73338;BME280;61575;49.908;35.556;2022-10-16T05:15:59;100772.97;;;2.69;76.57
73338;BME280;61575;49.908;35.556;2022-10-16T05:19:00;100779.31;;;2.82;76.57
73338;BME280;61575;49.908;35.556;2022-10-16T05:22:22;100778.47;;;2.98;76.59
73338;BME280;61575;49.908;35.556;2022-10-16T05:25:24;100785.69;;;3.11;76.15
73338;BME280;61575;49.908;35.556;2022-10-16T05:28:27;100785.94;;;3.22;76.25
73338;BME280;61575;49.908;35.556;2022-10-16T05:31:29;100789.53;;;3.37;76.03
73338;BME280;61575;49.908;35.556;2022-10-16T05:34:31;100793.09;;;3.52;76.03
73338;BME280;61575;49.908;35.556;2022-10-16T05:37:33;100790.63;;;3.65;75.95
73338;BME280;61575;49.908;35.556;2022-10-16T05:40:35;100795.03;;;3.80;75.75
73338;BME280;61575;49.908;35.556;2022-10-16T05:43:37;100803.63;;;3.99;75.67
73338;BME280;61575;49.908;35.556;2022-10-16T05:46:38;100798.19;;;4.16;75.54
73338;BME280;61575;49.908;35.556;2022-10-16T05:49:40;100808.66;;;4.34;75.29
73338;BME280;61575;49.908;35.556;2022-10-16T05:52:42;100803.00;;;4.54;75.21
73338;BME280;61575;49.908;35.556;2022-10-16T05:55:51;100801.59;;;4.77;74.61
73338;BME280;61575;49.908;35.556;2022-10-16T05:58:53;100805.88;;;4.94;74.23
73338;BME280;61575;49.908;35.556;2022-10-16T06:01:55;100807.38;;;5.12;74.28
73338;BME280;61575;49.908;35.556;2022-10-16T06:04:56;100821.19;;;5.31;73.63
73338;BME280;61575;49.908;35.556;2022-10-16T06:07:58;100815.72;;;5.47;73.21
73338;BME280;61575;49.908;35.556;2022-10-16T06:11:05;100814.25;;;5.70;72.76
73338;BME280;61575;49.908;35.556;2022-10-16T06:14:08;100818.47;;;5.86;72.17
73338;BME280;61575;49.908;35.556;2022-10-16T06:17:10;100817.91;;;6.08;72.08
73338;BME280;61575;49.908;35.556;2022-10-16T06:20:12;100827.88;;;6.32;71.79
73338;BME280;61575;49.908;35.556;2022-10-16T06:23:14;100820.34;;;6.51;71.12
73338;BME280;61575;49.908;35.556;2022-10-16T06:26:18;100832.28;;;6.71;70.67
73338;BME280;61575;49.908;35.556;2022-10-16T06:29:20;100819.28;;;6.92;69.97
73338;BME280;61575;49.908;35.556;2022-10-16T06:32:22;100812.75;;;7.08;69.19
73338;BME280;61575;49.908;35.556;2022-10-16T06:35:24;100820.00;;;7.19;68.46
73338;BME280;61575;49.908;35.556;2022-10-16T06:38:26;100820.91;;;7.43;67.81
73338;BME280;61575;49.908;35.556;2022-10-16T06:41:27;100821.91;;;7.66;67.51
73338;BME280;61575;49.908;35.556;2022-10-16T06:44:30;100814.28;;;7.97;66.91
73338;BME280;61575;49.908;35.556;2022-10-16T06:47:32;100815.38;;;8.29;66.50
73338;BME280;61575;49.908;35.556;2022-10-16T06:50:34;100815.75;;;8.60;65.49
73338;BME280;61575;49.908;35.556;2022-10-16T06:53:39;100819.91;;;8.86;65.06
73338;BME280;61575;49.908;35.556;2022-10-16T06:57:01;100825.53;;;9.17;64.27
73338;BME280;61575;49.908;35.556;2022-10-16T07:00:04;100829.53;;;9.33;63.46
73338;BME280;61575;49.908;35.556;2022-10-16T07:03:06;100843.38;;;9.50;62.40
73338;BME280;61575;49.908;35.556;2022-10-16T07:06:10;100835.91;;;9.76;62.66
73338;BME280;61575;49.908;35.556;2022-10-16T07:09:13;100836.22;;;9.93;61.61
73338;BME280;61575;49.908;35.556;2022-10-16T07:12:14;100831.78;;;10.15;60.71
73338;BME280;61575;49.908;35.556;2022-10-16T07:15:16;100826.00;;;10.30;60.36
73338;BME280;61575;49.908;35.556;2022-10-16T07:18:18;100824.81;;;10.44;59.29
73338;BME280;61575;49.908;35.556;2022-10-16T07:21:21;100828.59;;;10.62;58.71
73338;BME280;61575;49.908;35.556;2022-10-16T07:24:24;100819.25;;;10.78;58.33
73338;BME280;61575;49.908;35.556;2022-10-16T07:27:26;100820.72;;;10.91;57.69
73338;BME280;61575;49.908;35.556;2022-10-16T07:30:28;100824.19;;;11.03;56.87
73338;BME280;61575;49.908;35.556;2022-10-16T07:33:30;100819.53;;;11.05;56.46
73338;BME280;61575;49.908;35.556;2022-10-16T07:36:32;100825.66;;;11.17;55.76
73338;BME280;61575;49.908;35.556;2022-10-16T07:39:34;100822.34;;;11.34;55.88
73338;BME280;61575;49.908;35.556;2022-10-16T07:42:36;100819.72;;;11.53;55.58
73338;BME280;61575;49.908;35.556;2022-10-16T07:45:46;100828.00;;;11.81;54.12
73338;BME280;61575;49.908;35.556;2022-10-16T07:48:50;100819.69;;;11.93;54.15
73338;BME280;61575;49.908;35.556;2022-10-16T07:51:52;100825.03;;;11.84;52.69
73338;BME280;61575;49.908;35.556;2022-10-16T07:54:53;100821.25;;;12.06;53.50
73338;BME280;61575;49.908;35.556;2022-10-16T07:58:00;100812.19;;;12.16;53.26
73338;BME280;61575;49.908;35.556;2022-10-16T08:01:13;100818.13;;;12.29;51.79
73338;BME280;61575;49.908;35.556;2022-10-16T08:04:15;100807.50;;;12.47;52.10
73338;BME280;61575;49.908;35.556;2022-10-16T08:07:17;100814.72;;;12.56;51.93
73338;BME280;61575;49.908;35.556;2022-10-16T08:10:20;100813.44;;;12.51;51.13
73338;BME280;61575;49.908;35.556;2022-10-16T08:13:23;100812.88;;;12.47;50.78
73338;BME280;61575;49.908;35.556;2022-10-16T08:16:24;100806.22;;;12.61;51.19
73338;BME280;61575;49.908;35.556;2022-10-16T08:19:26;100810.44;;;12.73;50.43
73338;BME280;61575;49.908;35.556;2022-10-16T08:22:28;100805.72;;;12.85;50.38
73338;BME280;61575;49.908;35.556;2022-10-16T08:25:30;100804.53;;;13.07;50.32
73338;BME280;61575;49.908;35.556;2022-10-16T08:28:32;100813.00;;;13.21;50.05
73338;BME280;61575;49.908;35.556;2022-10-16T08:31:34;100820.44;;;13.37;49.49
73338;BME280;61575;49.908;35.556;2022-10-16T08:34:35;100813.66;;;13.60;48.95
73338;BME280;61575;49.908;35.556;2022-10-16T08:37:37;100819.38;;;13.75;48.57
73338;BME280;61575;49.908;35.556;2022-10-16T08:40:42;100814.88;;;13.93;47.65
73338;BME280;61575;49.908;35.556;2022-10-16T08:50:38;100824.03;;;14.01;46.15
73338;BME280;61575;49.908;35.556;2022-10-16T08:53:57;100825.97;;;14.08;45.72
73338;BME280;61575;49.908;35.556;2022-10-16T08:57:14;100820.66;;;14.16;45.50
73338;BME280;61575;49.908;35.556;2022-10-16T09:00:24;100817.63;;;14.37;45.96
73338;BME280;61575;49.908;35.556;2022-10-16T09:04:11;100824.34;;;14.15;44.92
73338;BME280;61575;49.908;35.556;2022-10-16T09:07:40;100815.03;;;14.27;45.02
73338;BME280;61575;49.908;35.556;2022-10-16T09:17:37;100818.59;;;14.46;46.01
73338;BME280;61575;49.908;35.556;2022-10-16T09:24:11;100816.16;;;14.61;44.81
73338;BME280;61575;49.908;35.556;2022-10-16T09:27:15;100809.75;;;14.62;44.92
73338;BME280;61575;49.908;35.556;2022-10-16T09:30:20;100811.03;;;14.75;45.19
73338;BME280;61575;49.908;35.556;2022-10-16T09:33:29;100807.22;;;14.86;45.33
73338;BME280;61575;49.908;35.556;2022-10-16T09:36:50;100804.47;;;14.52;44.18
73338;BME280;61575;49.908;35.556;2022-10-16T09:39:53;100807.63;;;14.30;45.68
73338;BME280;61575;49.908;35.556;2022-10-16T09:43:03;100801.84;;;14.24;45.62
73338;BME280;61575;49.908;35.556;2022-10-16T09:46:20;100802.06;;;14.13;45.97
73338;BME280;61575;49.908;35.556;2022-10-16T09:49:25;100804.69;;;13.87;46.47
73338;BME280;61575;49.908;35.556;2022-10-16T09:52:28;100805.31;;;13.99;46.49
73338;BME280;61575;49.908;35.556;2022-10-16T09:55:31;100797.16;;;14.09;46.01
73338;BME280;61575;49.908;35.556;2022-10-16T09:58:33;100804.22;;;14.10;45.60
73338;BME280;61575;49.908;35.556;2022-10-16T10:01:47;100805.25;;;14.09;45.44
73338;BME280;61575;49.908;35.556;2022-10-16T10:04:53;100799.63;;;14.02;45.04
73338;BME280;61575;49.908;35.556;2022-10-16T10:08:01;100793.00;;;13.97;45.60
73338;BME280;61575;49.908;35.556;2022-10-16T10:11:07;100795.00;;;13.94;45.98
73338;BME280;61575;49.908;35.556;2022-10-16T10:14:24;100801.69;;;13.90;45.35
73338;BME280;61575;49.908;35.556;2022-10-16T10:17:27;100786.28;;;13.83;45.90
73338;BME280;61575;49.908;35.556;2022-10-16T10:20:34;100783.09;;;13.70;45.74
73338;BME280;61575;49.908;35.556;2022-10-16T10:23:36;100777.38;;;13.55;46.00
73338;BME280;61575;49.908;35.556;2022-10-16T10:26:44;100773.59;;;13.48;46.01
73338;BME280;61575;49.908;35.556;2022-10-16T10:30:09;100764.72;;;13.38;45.62
73338;BME280;61575;49.908;35.556;2022-10-16T10:36:36;100775.59;;;13.46;46.58
73338;BME280;61575;49.908;35.556;2022-10-16T10:39:43;100775.69;;;13.54;46.63
73338;BME280;61575;49.908;35.556;2022-10-16T10:46:03;100777.69;;;13.52;46.69
73338;BME280;61575;49.908;35.556;2022-10-16T10:50:14;100762.44;;;13.43;45.57
73338;BME280;61575;49.908;35.556;2022-10-16T10:56:58;100770.50;;;13.43;46.57
73338;BME280;61575;49.908;35.556;2022-10-16T11:09:37;100766.81;;;13.16;46.86
73338;BME280;61575;49.908;35.556;2022-10-16T11:12:47;100767.38;;;13.10;47.27
73338;BME280;61575;49.908;35.556;2022-10-16T11:15:55;100768.38;;;13.09;47.11
73338;BME280;61575;49.908;35.556;2022-10-16T11:22:27;100758.59;;;13.18;47.60
73338;BME280;61575;49.908;35.556;2022-10-16T11:25:33;100757.44;;;13.20;47.12
73338;BME280;61575;49.908;35.556;2022-10-16T11:28:45;100761.69;;;13.13;47.01
73338;BME280;61575;49.908;35.556;2022-10-16T11:31:58;100747.53;;;13.11;46.98
73338;BME280;61575;49.908;35.556;2022-10-16T11:35:21;100738.22;;;13.06;47.47
73338;BME280;61575;49.908;35.556;2022-10-16T11:38:39;100742.75;;;13.05;47.81
73338;BME280;61575;49.908;35.556;2022-10-16T11:41:48;100742.47;;;13.08;47.33
73338;BME280;61575;49.908;35.556;2022-10-16T11:45:00;100728.69;;;13.11;47.19
73338;BME280;61575;49.908;35.556;2022-10-16T11:48:17;100731.53;;;13.19;47.43
73338;BME280;61575;49.908;35.556;2022-10-16T11:51:32;100735.06;;;13.20;47.36
73338;BME280;61575;49.908;35.556;2022-10-16T11:54:55;100733.38;;;13.19;47.07
73338;BME280;61575;49.908;35.556;2022-10-16T11:58:12;100723.00;;;13.14;47.25
73338;BME280;61575;49.908;35.556;2022-10-16T12:04:43;100723.16;;;13.13;47.32
73338;BME280;61575;49.908;35.556;2022-10-16T12:08:10;100722.91;;;13.06;47.00
73338;BME280;61575;49.908;35.556;2022-10-16T12:17:38;100727.78;;;12.93;47.22
73338;BME280;61575;49.908;35.556;2022-10-16T12:20:40;100733.47;;;12.90;47.51
73338;BME280;61575;49.908;35.556;2022-10-16T12:23:56;100723.84;;;12.87;47.68
73338;BME280;61575;49.908;35.556;2022-10-16T12:27:00;100730.66;;;12.82;47.95
73338;BME280;61575;49.908;35.556;2022-10-16T12:30:04;100725.13;;;12.83;48.15
73338;BME280;61575;49.908;35.556;2022-10-16T12:33:25;100719.75;;;12.83;47.86
73338;BME280;61575;49.908;35.556;2022-10-16T12:36:30;100725.59;;;12.79;48.09
73338;BME280;61575;49.908;35.556;2022-10-16T12:39:33;100725.78;;;12.68;48.39
73338;BME280;61575;49.908;35.556;2022-10-16T12:42:36;100725.94;;;12.56;48.37
73338;BME280;61575;49.908;35.556;2022-10-16T12:45:38;100738.41;;;12.57;48.70
73338;BME280;61575;49.908;35.556;2022-10-16T12:48:43;100740.38;;;12.55;48.34
73338;BME280;61575;49.908;35.556;2022-10-16T12:52:03;100742.81;;;12.49;48.16
73338;BME280;61575;49.908;35.556;2022-10-16T12:55:15;100743.09;;;12.46;47.85
73338;BME280;61575;49.908;35.556;2022-10-16T12:58:37;100749.47;;;12.45;47.53
73338;BME280;61575;49.908;35.556;2022-10-16T13:01:56;100750.63;;;12.42;47.85
73338;BME280;61575;49.908;35.556;2022-10-16T13:08:51;100753.31;;;12.32;48.23
73338;BME280;61575;49.908;35.556;2022-10-16T13:28:27;100758.88;;;12.02;48.85
73338;BME280;61575;49.908;35.556;2022-10-16T13:31:32;100755.31;;;12.02;48.68
73338;BME280;61575;49.908;35.556;2022-10-16T13:34:41;100761.13;;;11.97;48.84
73338;BME280;61575;49.908;35.556;2022-10-16T13:37:44;100764.81;;;11.96;49.01
73338;BME280;61575;49.908;35.556;2022-10-16T13:40:58;100765.78;;;11.95;49.09
73338;BME280;61575;49.908;35.556;2022-10-16T13:44:02;100767.22;;;11.89;49.50
73338;BME280;61575;49.908;35.556;2022-10-16T13:47:04;100769.31;;;11.86;49.49
73338;BME280;61575;49.908;35.556;2022-10-16T13:50:11;100770.47;;;11.83;49.78
73338;BME280;61575;49.908;35.556;2022-10-16T13:53:14;100770.03;;;11.78;50.31
73338;BME280;61575;49.908;35.556;2022-10-16T13:56:18;100771.25;;;11.74;50.22
73338;BME280;61575;49.908;35.556;2022-10-16T13:59:35;100780.31;;;11.73;50.13
73338;BME280;61575;49.908;35.556;2022-10-16T14:02:38;100778.59;;;11.72;50.32
73338;BME280;61575;49.908;35.556;2022-10-16T14:05:56;100780.59;;;11.70;50.30
73338;BME280;61575;49.908;35.556;2022-10-16T14:09:29;100792.88;;;11.63;50.35
73338;BME280;61575;49.908;35.556;2022-10-16T14:12:32;100790.88;;;11.55;50.58
73338;BME280;61575;49.908;35.556;2022-10-16T14:15:36;100793.53;;;11.46;50.69
73338;BME280;61575;49.908;35.556;2022-10-16T14:18:39;100787.88;;;11.39;50.88
73338;BME280;61575;49.908;35.556;2022-10-16T14:21:41;100794.06;;;11.30;51.25
73338;BME280;61575;49.908;35.556;2022-10-16T14:24:43;100785.25;;;11.18;51.74
73338;BME280;61575;49.908;35.556;2022-10-16T14:27:55;100793.41;;;11.07;52.17
73338;BME280;61575;49.908;35.556;2022-10-16T14:31:00;100796.44;;;10.93;52.73
73338;BME280;61575;49.908;35.556;2022-10-16T14:34:02;100794.00;;;10.80;53.49
73338;BME280;61575;49.908;35.556;2022-10-16T14:37:23;100801.06;;;10.60;55.02
73338;BME280;61575;49.908;35.556;2022-10-16T14:40:34;100804.66;;;10.50;54.88
73338;BME280;61575;49.908;35.556;2022-10-16T14:43:37;100804.63;;;10.40;54.94
73338;BME280;61575;49.908;35.556;2022-10-16T14:46:41;100812.00;;;10.27;55.63
73338;BME280;61575;49.908;35.556;2022-10-16T14:49:44;100816.22;;;10.09;56.24
73338;BME280;61575;49.908;35.556;2022-10-16T14:52:46;100821.25;;;9.91;56.45
73338;BME280;61575;49.908;35.556;2022-10-16T14:55:48;100816.19;;;9.77;56.73
73338;BME280;61575;49.908;35.556;2022-10-16T14:58:51;100822.69;;;9.63;57.55
73338;BME280;61575;49.908;35.556;2022-10-16T15:01:53;100828.53;;;9.46;58.06
73338;BME280;61575;49.908;35.556;2022-10-16T15:04:56;100828.06;;;9.29;58.83
73338;BME280;61575;49.908;35.556;2022-10-16T15:07:58;100824.56;;;9.06;59.74
73338;BME280;61575;49.908;35.556;2022-10-16T15:11:00;100823.44;;;8.98;59.66
73338;BME280;61575;49.908;35.556;2022-10-16T15:14:02;100810.44;;;8.82;60.57
73338;BME280;61575;49.908;35.556;2022-10-16T15:17:05;100806.16;;;8.68;60.92
73338;BME280;61575;49.908;35.556;2022-10-16T15:20:07;100805.91;;;8.60;60.93
73338;BME280;61575;49.908;35.556;2022-10-16T15:23:18;100813.16;;;8.47;61.55
73338;BME280;61575;49.908;35.556;2022-10-16T15:26:20;100805.97;;;8.36;61.80
73338;BME280;61575;49.908;35.556;2022-10-16T15:29:21;100809.44;;;8.26;62.05
73338;BME280;61575;49.908;35.556;2022-10-16T15:32:23;100809.50;;;8.13;62.35
73338;BME280;61575;49.908;35.556;2022-10-16T15:35:25;100810.31;;;8.02;63.02
73338;BME280;61575;49.908;35.556;2022-10-16T15:38:28;100812.69;;;7.94;63.20
73338;BME280;61575;49.908;35.556;2022-10-16T15:41:30;100810.50;;;7.88;62.91
73338;BME280;61575;49.908;35.556;2022-10-16T15:44:32;100809.34;;;7.79;63.29
73338;BME280;61575;49.908;35.556;2022-10-16T15:47:34;100806.28;;;7.73;63.40
73338;BME280;61575;49.908;35.556;2022-10-16T15:50:37;100819.84;;;7.70;64.11
73338;BME280;61575;49.908;35.556;2022-10-16T15:53:39;100822.75;;;7.67;64.40
73338;BME280;61575;49.908;35.556;2022-10-16T15:56:41;100816.28;;;7.58;64.78
73338;BME280;61575;49.908;35.556;2022-10-16T15:59:43;100814.28;;;7.49;64.75
73338;BME280;61575;49.908;35.556;2022-10-16T16:02:50;100821.00;;;7.42;65.04
73338;BME280;61575;49.908;35.556;2022-10-16T16:05:53;100825.94;;;7.35;65.19
73338;BME280;61575;49.908;35.556;2022-10-16T16:08:55;100835.47;;;7.27;65.20
73338;BME280;61575;49.908;35.556;2022-10-16T16:11:57;100838.66;;;7.19;65.18
73338;BME280;61575;49.908;35.556;2022-10-16T16:15:02;100834.50;;;7.15;65.30
73338;BME280;61575;49.908;35.556;2022-10-16T16:18:06;100829.84;;;7.06;65.63
73338;BME280;61575;49.908;35.556;2022-10-16T16:21:12;100835.69;;;6.98;65.33
73338;BME280;61575;49.908;35.556;2022-10-16T16:24:14;100839.88;;;6.90;65.95
73338;BME280;61575;49.908;35.556;2022-10-16T16:27:16;100855.31;;;6.85;65.88
73338;BME280;61575;49.908;35.556;2022-10-16T16:30:18;100854.91;;;6.78;66.53
73338;BME280;61575;49.908;35.556;2022-10-16T16:33:27;100872.25;;;6.71;66.95
73338;BME280;61575;49.908;35.556;2022-10-16T16:36:29;100877.91;;;6.66;67.17
73338;BME280;61575;49.908;35.556;2022-10-16T16:39:32;100876.53;;;6.61;67.51
73338;BME280;61575;49.908;35.556;2022-10-16T16:42:33;100882.16;;;6.56;67.41
73338;BME280;61575;49.908;35.556;2022-10-16T16:45:35;100889.59;;;6.51;67.33
73338;BME280;61575;49.908;35.556;2022-10-16T16:48:38;100890.16;;;6.56;67.53
73338;BME280;61575;49.908;35.556;2022-10-16T16:51:40;100902.50;;;6.57;67.20
73338;BME280;61575;49.908;35.556;2022-10-16T16:54:42;100903.78;;;6.52;67.45
73338;BME280;61575;49.908;35.556;2022-10-16T16:57:47;100905.91;;;6.46;67.30
73338;BME280;61575;49.908;35.556;2022-10-16T17:00:49;100914.41;;;6.39;67.66
73338;BME280;61575;49.908;35.556;2022-10-16T17:03:58;100918.31;;;6.33;67.80
73338;BME280;61575;49.908;35.556;2022-10-16T17:07:01;100926.72;;;6.27;67.89
73338;BME280;61575;49.908;35.556;2022-10-16T17:10:03;100926.16;;;6.22;67.80
73338;BME280;61575;49.908;35.556;2022-10-16T17:13:04;100924.00;;;6.14;68.08
73338;BME280;61575;49.908;35.556;2022-10-16T17:16:07;100933.34;;;6.07;67.99
73338;BME280;61575;49.908;35.556;2022-10-16T17:19:14;100935.47;;;6.02;68.36
73338;BME280;61575;49.908;35.556;2022-10-16T17:22:17;100938.41;;;5.98;68.53
73338;BME280;61575;49.908;35.556;2022-10-16T17:25:19;100947.44;;;5.95;68.66
73338;BME280;61575;49.908;35.556;2022-10-16T17:28:24;100947.75;;;5.91;68.74
73338;BME280;61575;49.908;35.556;2022-10-16T17:31:28;100945.44;;;5.84;69.00